sensor_id;sensor_type;location;lat;lon;timestamp;P1;durP1;ratioP1;P2;durP2;ratioP2
27632;SDS011;15046;50.930;13.334;2024-01-07T00:01:50;49.45;;;22.58;;
27632;SDS011;15046;50.930;13.334;2024-01-07T00:04:16;45.65;;;21.90;;
27632;SDS011;15046;50.930;13.334;2024-01-07T00:06:42;45.78;;;21.52;;
27632;SDS011;15046;50.930;13.334;2024-01-07T00:09:08;43.47;;;21.10;;
27632;SDS011;15046;50.930;13.334;2024-01-07T00:11:33;40.13;;;20.63;;
27632;SDS011;15046;50.930;13.334;2024-01-07T00:13:59;42.80;;;21.92;;
27632;SDS011;15046;50.930;13.334;2024-01-07T00:16:25;45.70;;;23.08;;
27632;SDS011;15046;50.930;13.334;2024-01-07T00:18:51;50.38;;;24.05;;
27632;SDS011;15046;50.930;13.334;2024-01-07T00:21:16;48.35;;;25.23;;
27632;SDS011;15046;50.930;13.334;2024-01-07T00:23:42;55.15;;;25.63;;
27632;SDS011;15046;50.930;13.334;2024-01-07T00:26:09;53.75;;;25.13;;
27632;SDS011;15046;50.930;13.334;2024-01-07T00:28:35;63.97;;;25.40;;
27632;SDS011;15046;50.930;13.334;2024-01-07T00:31:00;84.07;;;26.52;;
27632;SDS011;15046;50.930;13.334;2024-01-07T00:33:26;58.70;;;26.77;;
27632;SDS011;15046;50.930;13.334;2024-01-07T00:35:56;68.82;;;29.88;;
27632;SDS011;15046;50.930;13.334;2024-01-07T00:38:22;63.65;;;28.17;;
27632;SDS011;15046;50.930;13.334;2024-01-07T00:40:48;64.35;;;28.55;;
27632;SDS011;15046;50.930;13.334;2024-01-07T00:43:13;61.45;;;28.00;;
27632;SDS011;15046;50.930;13.334;2024-01-07T00:45:39;58.05;;;27.00;;
27632;SDS011;15046;50.930;13.334;2024-01-07T00:48:05;66.97;;;27.67;;
27632;SDS011;15046;50.930;13.334;2024-01-07T00:50:31;65.97;;;25.88;;
27632;SDS011;15046;50.930;13.334;2024-01-07T00:52:57;57.08;;;24.92;;
27632;SDS011;15046;50.930;13.334;2024-01-07T00:55:23;59.40;;;26.70;;
27632;SDS011;15046;50.930;13.334;2024-01-07T00:57:49;65.15;;;27.27;;
27632;SDS011;15046;50.930;13.334;2024-01-07T01:00:15;64.63;;;27.90;;
27632;SDS011;15046;50.930;13.334;2024-01-07T01:02:41;84.28;;;28.75;;
27632;SDS011;15046;50.930;13.334;2024-01-07T01:05:07;70.93;;;29.67;;
27632;SDS011;15046;50.930;13.334;2024-01-07T01:07:33;61.13;;;28.88;;
27632;SDS011;15046;50.930;13.334;2024-01-07T01:09:59;56.60;;;25.80;;
27632;SDS011;15046;50.930;13.334;2024-01-07T01:12:25;53.45;;;24.17;;
27632;SDS011;15046;50.930;13.334;2024-01-07T01:14:51;48.25;;;24.70;;
27632;SDS011;15046;50.930;13.334;2024-01-07T01:17:17;48.78;;;24.88;;
27632;SDS011;15046;50.930;13.334;2024-01-07T01:19:43;53.03;;;26.10;;
27632;SDS011;15046;50.930;13.334;2024-01-07T01:22:08;54.40;;;26.38;;
27632;SDS011;15046;50.930;13.334;2024-01-07T01:24:34;66.63;;;27.52;;
27632;SDS011;15046;50.930;13.334;2024-01-07T01:27:00;60.53;;;26.88;;
27632;SDS011;15046;50.930;13.334;2024-01-07T01:29:26;55.20;;;26.65;;
27632;SDS011;15046;50.930;13.334;2024-01-07T01:31:51;53.75;;;24.00;;
27632;SDS011;15046;50.930;13.334;2024-01-07T01:34:17;49.45;;;23.98;;
27632;SDS011;15046;50.930;13.334;2024-01-07T01:36:43;48.78;;;23.27;;
27632;SDS011;15046;50.930;13.334;2024-01-07T01:39:09;48.25;;;24.75;;
27632;SDS011;15046;50.930;13.334;2024-01-07T01:41:35;49.63;;;22.60;;
27632;SDS011;15046;50.930;13.334;2024-01-07T01:44:01;46.10;;;23.20;;
27632;SDS011;15046;50.930;13.334;2024-01-07T01:46:26;46.50;;;22.73;;
27632;SDS011;15046;50.930;13.334;2024-01-07T01:48:54;49.30;;;23.48;;
27632;SDS011;15046;50.930;13.334;2024-01-07T01:51:21;45.63;;;23.48;;
27632;SDS011;15046;50.930;13.334;2024-01-07T01:53:48;43.00;;;22.45;;
27632;SDS011;15046;50.930;13.334;2024-01-07T01:56:16;39.00;;;19.55;;
27632;SDS011;15046;50.930;13.334;2024-01-07T01:58:43;39.60;;;19.35;;
27632;SDS011;15046;50.930;13.334;2024-01-07T02:01:09;38.83;;;21.90;;
27632;SDS011;15046;50.930;13.334;2024-01-07T02:03:35;47.78;;;24.45;;
27632;SDS011;15046;50.930;13.334;2024-01-07T02:06:01;44.28;;;21.23;;
27632;SDS011;15046;50.930;13.334;2024-01-07T02:08:27;37.72;;;19.10;;
27632;SDS011;15046;50.930;13.334;2024-01-07T02:10:54;39.83;;;20.60;;
27632;SDS011;15046;50.930;13.334;2024-01-07T02:13:20;36.70;;;18.20;;
27632;SDS011;15046;50.930;13.334;2024-01-07T02:15:46;40.92;;;19.52;;
27632;SDS011;15046;50.930;13.334;2024-01-07T02:18:12;40.50;;;21.15;;
27632;SDS011;15046;50.930;13.334;2024-01-07T02:20:37;45.38;;;22.52;;
27632;SDS011;15046;50.930;13.334;2024-01-07T02:23:03;53.97;;;22.27;;
27632;SDS011;15046;50.930;13.334;2024-01-07T02:25:34;47.95;;;22.65;;
27632;SDS011;15046;50.930;13.334;2024-01-07T02:28:01;49.10;;;21.30;;
27632;SDS011;15046;50.930;13.334;2024-01-07T02:30:26;46.67;;;23.17;;
27632;SDS011;15046;50.930;13.334;2024-01-07T02:32:52;47.15;;;24.08;;
27632;SDS011;15046;50.930;13.334;2024-01-07T02:35:18;49.13;;;23.23;;
27632;SDS011;15046;50.930;13.334;2024-01-07T02:37:44;45.05;;;23.17;;
27632;SDS011;15046;50.930;13.334;2024-01-07T02:40:09;57.20;;;25.08;;
27632;SDS011;15046;50.930;13.334;2024-01-07T02:42:36;43.92;;;21.77;;
27632;SDS011;15046;50.930;13.334;2024-01-07T02:45:01;47.75;;;25.58;;
27632;SDS011;15046;50.930;13.334;2024-01-07T02:47:27;46.78;;;21.92;;
27632;SDS011;15046;50.930;13.334;2024-01-07T02:49:53;44.38;;;22.63;;
27632;SDS011;15046;50.930;13.334;2024-01-07T02:52:18;43.60;;;20.30;;
27632;SDS011;15046;50.930;13.334;2024-01-07T02:54:44;45.95;;;21.80;;
27632;SDS011;15046;50.930;13.334;2024-01-07T02:57:10;51.85;;;22.45;;
27632;SDS011;15046;50.930;13.334;2024-01-07T02:59:36;48.05;;;22.58;;
27632;SDS011;15046;50.930;13.334;2024-01-07T03:02:01;43.75;;;21.10;;
27632;SDS011;15046;50.930;13.334;2024-01-07T03:04:27;42.42;;;20.65;;
27632;SDS011;15046;50.930;13.334;2024-01-07T03:06:53;44.85;;;21.65;;
27632;SDS011;15046;50.930;13.334;2024-01-07T03:09:19;46.72;;;20.73;;
27632;SDS011;15046;50.930;13.334;2024-01-07T03:11:44;52.45;;;22.80;;
27632;SDS011;15046;50.930;13.334;2024-01-07T03:14:10;43.42;;;20.70;;
27632;SDS011;15046;50.930;13.334;2024-01-07T03:16:36;48.50;;;22.90;;
27632;SDS011;15046;50.930;13.334;2024-01-07T03:19:02;44.40;;;21.90;;
27632;SDS011;15046;50.930;13.334;2024-01-07T03:21:29;47.95;;;23.10;;
27632;SDS011;15046;50.930;13.334;2024-01-07T03:23:55;50.95;;;24.98;;
27632;SDS011;15046;50.930;13.334;2024-01-07T03:26:21;45.70;;;23.15;;
27632;SDS011;15046;50.930;13.334;2024-01-07T03:28:46;47.17;;;22.73;;
27632;SDS011;15046;50.930;13.334;2024-01-07T03:31:13;46.70;;;22.23;;
27632;SDS011;15046;50.930;13.334;2024-01-07T03:33:40;45.05;;;21.83;;
27632;SDS011;15046;50.930;13.334;2024-01-07T03:36:11;42.90;;;21.02;;
27632;SDS011;15046;50.930;13.334;2024-01-07T03:38:38;40.45;;;20.85;;
27632;SDS011;15046;50.930;13.334;2024-01-07T03:41:04;43.92;;;22.23;;
27632;SDS011;15046;50.930;13.334;2024-01-07T03:43:31;42.30;;;22.35;;
27632;SDS011;15046;50.930;13.334;2024-01-07T03:45:57;43.20;;;22.48;;
27632;SDS011;15046;50.930;13.334;2024-01-07T03:48:23;39.25;;;21.83;;
27632;SDS011;15046;50.930;13.334;2024-01-07T03:50:49;44.78;;;21.52;;
27632;SDS011;15046;50.930;13.334;2024-01-07T03:53:15;40.13;;;20.27;;
27632;SDS011;15046;50.930;13.334;2024-01-07T03:55:41;41.95;;;22.83;;
27632;SDS011;15046;50.930;13.334;2024-01-07T03:58:07;42.38;;;22.27;;
27632;SDS011;15046;50.930;13.334;2024-01-07T04:00:33;44.25;;;20.92;;
27632;SDS011;15046;50.930;13.334;2024-01-07T04:03:00;40.83;;;22.17;;
27632;SDS011;15046;50.930;13.334;2024-01-07T04:05:26;46.17;;;22.05;;
27632;SDS011;15046;50.930;13.334;2024-01-07T04:07:52;43.22;;;20.90;;
27632;SDS011;15046;50.930;13.334;2024-01-07T04:10:18;35.40;;;18.45;;
27632;SDS011;15046;50.930;13.334;2024-01-07T04:12:44;36.55;;;18.38;;
27632;SDS011;15046;50.930;13.334;2024-01-07T04:15:12;37.70;;;19.15;;
27632;SDS011;15046;50.930;13.334;2024-01-07T04:17:38;34.80;;;17.45;;
27632;SDS011;15046;50.930;13.334;2024-01-07T04:20:05;38.42;;;18.55;;
27632;SDS011;15046;50.930;13.334;2024-01-07T04:22:31;37.95;;;18.88;;
27632;SDS011;15046;50.930;13.334;2024-01-07T04:24:57;44.38;;;19.83;;
27632;SDS011;15046;50.930;13.334;2024-01-07T04:27:23;41.90;;;20.63;;
27632;SDS011;15046;50.930;13.334;2024-01-07T04:29:50;36.47;;;17.08;;
27632;SDS011;15046;50.930;13.334;2024-01-07T04:32:16;33.97;;;16.85;;
27632;SDS011;15046;50.930;13.334;2024-01-07T04:34:42;35.00;;;17.08;;
27632;SDS011;15046;50.930;13.334;2024-01-07T04:37:08;29.63;;;17.75;;
27632;SDS011;15046;50.930;13.334;2024-01-07T04:39:34;32.67;;;16.88;;
27632;SDS011;15046;50.930;13.334;2024-01-07T04:41:59;34.22;;;15.70;;
27632;SDS011;15046;50.930;13.334;2024-01-07T04:44:25;31.52;;;15.55;;
27632;SDS011;15046;50.930;13.334;2024-01-07T04:46:51;33.35;;;18.15;;
27632;SDS011;15046;50.930;13.334;2024-01-07T04:49:17;35.42;;;18.00;;
27632;SDS011;15046;50.930;13.334;2024-01-07T04:51:42;37.10;;;19.17;;
27632;SDS011;15046;50.930;13.334;2024-01-07T04:54:08;34.20;;;17.30;;
27632;SDS011;15046;50.930;13.334;2024-01-07T04:56:34;40.88;;;17.60;;
27632;SDS011;15046;50.930;13.334;2024-01-07T04:59:00;32.13;;;15.85;;
27632;SDS011;15046;50.930;13.334;2024-01-07T05:01:25;38.67;;;18.10;;
27632;SDS011;15046;50.930;13.334;2024-01-07T05:03:51;38.58;;;18.08;;
27632;SDS011;15046;50.930;13.334;2024-01-07T05:06:17;37.30;;;18.92;;
27632;SDS011;15046;50.930;13.334;2024-01-07T05:08:43;36.78;;;18.42;;
27632;SDS011;15046;50.930;13.334;2024-01-07T05:11:08;37.08;;;18.02;;
27632;SDS011;15046;50.930;13.334;2024-01-07T05:13:35;31.60;;;16.83;;
27632;SDS011;15046;50.930;13.334;2024-01-07T05:16:01;35.92;;;18.23;;
27632;SDS011;15046;50.930;13.334;2024-01-07T05:18:27;34.25;;;16.75;;
27632;SDS011;15046;50.930;13.334;2024-01-07T05:20:53;34.95;;;18.27;;
27632;SDS011;15046;50.930;13.334;2024-01-07T05:23:19;35.35;;;18.10;;
27632;SDS011;15046;50.930;13.334;2024-01-07T05:25:45;39.83;;;18.33;;
27632;SDS011;15046;50.930;13.334;2024-01-07T05:28:12;35.80;;;17.00;;
27632;SDS011;15046;50.930;13.334;2024-01-07T05:30:38;35.03;;;18.63;;
27632;SDS011;15046;50.930;13.334;2024-01-07T05:33:05;32.47;;;15.43;;
27632;SDS011;15046;50.930;13.334;2024-01-07T05:35:31;31.45;;;15.95;;
27632;SDS011;15046;50.930;13.334;2024-01-07T05:37:57;33.13;;;16.48;;
27632;SDS011;15046;50.930;13.334;2024-01-07T05:40:23;27.45;;;14.30;;
27632;SDS011;15046;50.930;13.334;2024-01-07T05:42:49;29.17;;;14.82;;
27632;SDS011;15046;50.930;13.334;2024-01-07T05:45:14;32.10;;;15.30;;
27632;SDS011;15046;50.930;13.334;2024-01-07T05:47:40;30.25;;;14.88;;
27632;SDS011;15046;50.930;13.334;2024-01-07T05:50:07;36.45;;;15.02;;
27632;SDS011;15046;50.930;13.334;2024-01-07T05:52:33;31.00;;;14.27;;
27632;SDS011;15046;50.930;13.334;2024-01-07T05:54:59;27.27;;;13.43;;
27632;SDS011;15046;50.930;13.334;2024-01-07T05:57:24;25.13;;;13.70;;
27632;SDS011;15046;50.930;13.334;2024-01-07T05:59:50;27.75;;;13.60;;
27632;SDS011;15046;50.930;13.334;2024-01-07T06:02:19;28.02;;;13.65;;
27632;SDS011;15046;50.930;13.334;2024-01-07T06:04:47;25.23;;;12.98;;
27632;SDS011;15046;50.930;13.334;2024-01-07T06:07:13;24.10;;;13.20;;
27632;SDS011;15046;50.930;13.334;2024-01-07T06:09:39;26.45;;;14.20;;
27632;SDS011;15046;50.930;13.334;2024-01-07T06:12:05;25.80;;;13.93;;
27632;SDS011;15046;50.930;13.334;2024-01-07T06:14:30;22.65;;;11.95;;
27632;SDS011;15046;50.930;13.334;2024-01-07T06:16:56;21.40;;;11.48;;
27632;SDS011;15046;50.930;13.334;2024-01-07T06:19:22;22.15;;;10.88;;
27632;SDS011;15046;50.930;13.334;2024-01-07T06:21:48;23.77;;;11.48;;
27632;SDS011;15046;50.930;13.334;2024-01-07T06:24:14;20.02;;;11.38;;
27632;SDS011;15046;50.930;13.334;2024-01-07T06:26:40;21.23;;;9.93;;
27632;SDS011;15046;50.930;13.334;2024-01-07T06:29:06;20.38;;;8.40;;
27632;SDS011;15046;50.930;13.334;2024-01-07T06:31:32;17.60;;;9.48;;
27632;SDS011;15046;50.930;13.334;2024-01-07T06:33:59;25.30;;;11.68;;
27632;SDS011;15046;50.930;13.334;2024-01-07T06:36:25;20.20;;;10.40;;
27632;SDS011;15046;50.930;13.334;2024-01-07T06:38:51;20.98;;;10.05;;
27632;SDS011;15046;50.930;13.334;2024-01-07T06:41:16;20.67;;;10.63;;
27632;SDS011;15046;50.930;13.334;2024-01-07T06:43:42;20.80;;;9.68;;
27632;SDS011;15046;50.930;13.334;2024-01-07T06:46:08;17.08;;;9.50;;
27632;SDS011;15046;50.930;13.334;2024-01-07T06:48:35;21.58;;;11.35;;
27632;SDS011;15046;50.930;13.334;2024-01-07T06:51:00;22.65;;;10.52;;
27632;SDS011;15046;50.930;13.334;2024-01-07T06:53:26;22.17;;;11.82;;
27632;SDS011;15046;50.930;13.334;2024-01-07T06:55:52;21.02;;;10.43;;
27632;SDS011;15046;50.930;13.334;2024-01-07T06:58:18;21.90;;;10.77;;
27632;SDS011;15046;50.930;13.334;2024-01-07T07:00:44;20.33;;;10.18;;
27632;SDS011;15046;50.930;13.334;2024-01-07T07:03:10;18.98;;;10.30;;
27632;SDS011;15046;50.930;13.334;2024-01-07T07:05:36;21.42;;;10.60;;
27632;SDS011;15046;50.930;13.334;2024-01-07T07:08:02;20.23;;;9.90;;
27632;SDS011;15046;50.930;13.334;2024-01-07T07:10:28;17.00;;;9.40;;
27632;SDS011;15046;50.930;13.334;2024-01-07T07:12:54;20.33;;;10.57;;
27632;SDS011;15046;50.930;13.334;2024-01-07T07:15:21;17.25;;;8.85;;
27632;SDS011;15046;50.930;13.334;2024-01-07T07:17:47;16.75;;;8.85;;
27632;SDS011;15046;50.930;13.334;2024-01-07T07:20:12;14.95;;;7.88;;
27632;SDS011;15046;50.930;13.334;2024-01-07T07:22:38;17.05;;;9.23;;
27632;SDS011;15046;50.930;13.334;2024-01-07T07:25:04;17.15;;;9.20;;
27632;SDS011;15046;50.930;13.334;2024-01-07T07:27:30;15.15;;;8.30;;
27632;SDS011;15046;50.930;13.334;2024-01-07T07:29:56;14.32;;;8.05;;
27632;SDS011;15046;50.930;13.334;2024-01-07T07:32:22;14.35;;;7.57;;
27632;SDS011;15046;50.930;13.334;2024-01-07T07:34:47;15.30;;;8.13;;
27632;SDS011;15046;50.930;13.334;2024-01-07T07:37:13;14.75;;;7.63;;
27632;SDS011;15046;50.930;13.334;2024-01-07T07:39:39;15.60;;;7.78;;
27632;SDS011;15046;50.930;13.334;2024-01-07T07:42:05;16.98;;;8.82;;
27632;SDS011;15046;50.930;13.334;2024-01-07T07:44:31;14.43;;;7.55;;
27632;SDS011;15046;50.930;13.334;2024-01-07T07:46:57;17.58;;;8.30;;
27632;SDS011;15046;50.930;13.334;2024-01-07T07:49:22;15.77;;;7.70;;
27632;SDS011;15046;50.930;13.334;2024-01-07T07:51:48;18.08;;;9.18;;
27632;SDS011;15046;50.930;13.334;2024-01-07T07:54:14;12.15;;;7.20;;
27632;SDS011;15046;50.930;13.334;2024-01-07T07:56:39;15.75;;;8.95;;
27632;SDS011;15046;50.930;13.334;2024-01-07T07:59:05;16.13;;;7.70;;
27632;SDS011;15046;50.930;13.334;2024-01-07T08:01:31;12.20;;;6.25;;
27632;SDS011;15046;50.930;13.334;2024-01-07T08:03:57;16.08;;;7.80;;
27632;SDS011;15046;50.930;13.334;2024-01-07T08:06:23;13.40;;;7.13;;
27632;SDS011;15046;50.930;13.334;2024-01-07T08:08:48;14.18;;;7.53;;
27632;SDS011;15046;50.930;13.334;2024-01-07T08:11:14;14.40;;;7.55;;
27632;SDS011;15046;50.930;13.334;2024-01-07T08:13:40;13.38;;;7.40;;
27632;SDS011;15046;50.930;13.334;2024-01-07T08:16:06;12.88;;;7.07;;
27632;SDS011;15046;50.930;13.334;2024-01-07T08:18:32;13.70;;;7.53;;
27632;SDS011;15046;50.930;13.334;2024-01-07T08:20:58;13.55;;;7.80;;
27632;SDS011;15046;50.930;13.334;2024-01-07T08:23:24;16.58;;;7.90;;
27632;SDS011;15046;50.930;13.334;2024-01-07T08:25:50;14.98;;;7.68;;
27632;SDS011;15046;50.930;13.334;2024-01-07T08:28:16;11.63;;;7.35;;
27632;SDS011;15046;50.930;13.334;2024-01-07T08:30:43;13.35;;;7.72;;
27632;SDS011;15046;50.930;13.334;2024-01-07T08:33:10;14.18;;;7.55;;
27632;SDS011;15046;50.930;13.334;2024-01-07T08:35:36;13.70;;;7.25;;
27632;SDS011;15046;50.930;13.334;2024-01-07T08:38:02;12.95;;;6.75;;
27632;SDS011;15046;50.930;13.334;2024-01-07T08:40:28;11.68;;;6.93;;
27632;SDS011;15046;50.930;13.334;2024-01-07T08:42:54;12.13;;;7.10;;
27632;SDS011;15046;50.930;13.334;2024-01-07T08:45:20;13.40;;;6.82;;
27632;SDS011;15046;50.930;13.334;2024-01-07T08:47:46;12.45;;;6.72;;
27632;SDS011;15046;50.930;13.334;2024-01-07T08:50:12;13.57;;;6.72;;
27632;SDS011;15046;50.930;13.334;2024-01-07T08:52:38;11.23;;;6.55;;
27632;SDS011;15046;50.930;13.334;2024-01-07T08:55:04;10.70;;;6.05;;
27632;SDS011;15046;50.930;13.334;2024-01-07T08:57:31;10.57;;;5.35;;
27632;SDS011;15046;50.930;13.334;2024-01-07T08:59:57;10.70;;;5.93;;
27632;SDS011;15046;50.930;13.334;2024-01-07T09:02:24;11.75;;;6.55;;
27632;SDS011;15046;50.930;13.334;2024-01-07T09:04:50;15.40;;;7.43;;
27632;SDS011;15046;50.930;13.334;2024-01-07T09:07:17;15.50;;;8.70;;
27632;SDS011;15046;50.930;13.334;2024-01-07T09:09:44;9.98;;;5.50;;
27632;SDS011;15046;50.930;13.334;2024-01-07T09:12:10;10.15;;;6.35;;
27632;SDS011;15046;50.930;13.334;2024-01-07T09:14:37;13.50;;;6.45;;
27632;SDS011;15046;50.930;13.334;2024-01-07T09:17:03;19.70;;;9.45;;
27632;SDS011;15046;50.930;13.334;2024-01-07T09:19:29;18.73;;;9.02;;
27632;SDS011;15046;50.930;13.334;2024-01-07T09:21:55;42.40;;;19.08;;
27632;SDS011;15046;50.930;13.334;2024-01-07T09:24:20;23.65;;;10.85;;
27632;SDS011;15046;50.930;13.334;2024-01-07T09:26:46;11.10;;;4.75;;
27632;SDS011;15046;50.930;13.334;2024-01-07T09:29:12;10.80;;;5.80;;
27632;SDS011;15046;50.930;13.334;2024-01-07T09:31:39;9.25;;;5.15;;
27632;SDS011;15046;50.930;13.334;2024-01-07T09:34:05;11.20;;;5.30;;
27632;SDS011;15046;50.930;13.334;2024-01-07T09:36:32;11.95;;;6.53;;
27632;SDS011;15046;50.930;13.334;2024-01-07T09:38:58;7.82;;;4.50;;
27632;SDS011;15046;50.930;13.334;2024-01-07T09:41:24;12.80;;;6.82;;
27632;SDS011;15046;50.930;13.334;2024-01-07T09:43:53;7.57;;;5.22;;
27632;SDS011;15046;50.930;13.334;2024-01-07T09:46:19;8.73;;;5.10;;
27632;SDS011;15046;50.930;13.334;2024-01-07T09:48:45;8.48;;;4.78;;
27632;SDS011;15046;50.930;13.334;2024-01-07T09:51:11;8.50;;;4.35;;
27632;SDS011;15046;50.930;13.334;2024-01-07T09:53:38;8.68;;;5.35;;
27632;SDS011;15046;50.930;13.334;2024-01-07T09:56:42;8.75;;;4.65;;
27632;SDS011;15046;50.930;13.334;2024-01-07T09:59:05;9.48;;;4.60;;
27632;SDS011;15046;50.930;13.334;2024-01-07T10:01:32;7.90;;;4.55;;
27632;SDS011;15046;50.930;13.334;2024-01-07T10:04:00;10.32;;;4.97;;
27632;SDS011;15046;50.930;13.334;2024-01-07T10:06:26;7.55;;;4.53;;
27632;SDS011;15046;50.930;13.334;2024-01-07T10:08:52;11.15;;;4.68;;
27632;SDS011;15046;50.930;13.334;2024-01-07T10:11:18;6.80;;;4.22;;
27632;SDS011;15046;50.930;13.334;2024-01-07T10:13:46;8.32;;;3.95;;
27632;SDS011;15046;50.930;13.334;2024-01-07T10:16:17;8.95;;;4.30;;
27632;SDS011;15046;50.930;13.334;2024-01-07T10:18:42;7.45;;;4.32;;
27632;SDS011;15046;50.930;13.334;2024-01-07T10:21:08;9.75;;;4.43;;
27632;SDS011;15046;50.930;13.334;2024-01-07T10:23:34;7.15;;;3.97;;
27632;SDS011;15046;50.930;13.334;2024-01-07T10:26:00;9.85;;;4.10;;
27632;SDS011;15046;50.930;13.334;2024-01-07T10:28:27;7.55;;;3.75;;
27632;SDS011;15046;50.930;13.334;2024-01-07T10:30:53;8.13;;;4.38;;
27632;SDS011;15046;50.930;13.334;2024-01-07T10:33:19;7.63;;;4.00;;
27632;SDS011;15046;50.930;13.334;2024-01-07T10:36:05;9.00;;;5.25;;
27632;SDS011;15046;50.930;13.334;2024-01-07T10:38:32;11.45;;;4.57;;
27632;SDS011;15046;50.930;13.334;2024-01-07T10:40:59;9.77;;;4.80;;
27632;SDS011;15046;50.930;13.334;2024-01-07T10:43:26;11.27;;;4.50;;
27632;SDS011;15046;50.930;13.334;2024-01-07T10:45:55;9.00;;;4.20;;
27632;SDS011;15046;50.930;13.334;2024-01-07T10:48:23;8.95;;;4.72;;
27632;SDS011;15046;50.930;13.334;2024-01-07T10:50:52;8.32;;;4.47;;
27632;SDS011;15046;50.930;13.334;2024-01-07T10:53:20;7.53;;;3.85;;
27632;SDS011;15046;50.930;13.334;2024-01-07T10:56:03;7.53;;;3.85;;
27632;SDS011;15046;50.930;13.334;2024-01-07T10:58:33;9.23;;;3.90;;
27632;SDS011;15046;50.930;13.334;2024-01-07T11:01:01;7.70;;;3.80;;
27632;SDS011;15046;50.930;13.334;2024-01-07T11:09:06;6.70;;;3.90;;
27632;SDS011;15046;50.930;13.334;2024-01-07T11:11:43;12.82;;;3.78;;
27632;SDS011;15046;50.930;13.334;2024-01-07T11:17:00;6.88;;;4.05;;
27632;SDS011;15046;50.930;13.334;2024-01-07T11:19:27;6.38;;;3.95;;
27632;SDS011;15046;50.930;13.334;2024-01-07T11:22:08;12.43;;;4.25;;
27632;SDS011;15046;50.930;13.334;2024-01-07T11:24:55;6.55;;;3.53;;
27632;SDS011;15046;50.930;13.334;2024-01-07T11:27:22;7.65;;;3.97;;
27632;SDS011;15046;50.930;13.334;2024-01-07T11:29:55;6.70;;;3.47;;
27632;SDS011;15046;50.930;13.334;2024-01-07T11:32:22;7.18;;;4.22;;
27632;SDS011;15046;50.930;13.334;2024-01-07T11:34:52;8.88;;;3.85;;
27632;SDS011;15046;50.930;13.334;2024-01-07T11:37:19;7.15;;;3.47;;
27632;SDS011;15046;50.930;13.334;2024-01-07T11:39:46;7.13;;;4.05;;
27632;SDS011;15046;50.930;13.334;2024-01-07T11:42:13;7.07;;;3.90;;
27632;SDS011;15046;50.930;13.334;2024-01-07T11:47:35;7.90;;;3.72;;
27632;SDS011;15046;50.930;13.334;2024-01-07T11:50:01;7.35;;;3.72;;
27632;SDS011;15046;50.930;13.334;2024-01-07T11:52:27;6.80;;;3.97;;
27632;SDS011;15046;50.930;13.334;2024-01-07T11:54:54;8.93;;;4.45;;
27632;SDS011;15046;50.930;13.334;2024-01-07T11:57:21;8.20;;;4.05;;
27632;SDS011;15046;50.930;13.334;2024-01-07T11:59:48;6.90;;;3.75;;
27632;SDS011;15046;50.930;13.334;2024-01-07T12:02:13;8.95;;;3.95;;
27632;SDS011;15046;50.930;13.334;2024-01-07T12:04:42;7.95;;;3.83;;
27632;SDS011;15046;50.930;13.334;2024-01-07T12:07:07;8.13;;;3.92;;
27632;SDS011;15046;50.930;13.334;2024-01-07T12:09:35;9.00;;;3.80;;
27632;SDS011;15046;50.930;13.334;2024-01-07T12:12:01;7.18;;;3.80;;
27632;SDS011;15046;50.930;13.334;2024-01-07T12:14:28;8.77;;;4.18;;
27632;SDS011;15046;50.930;13.334;2024-01-07T12:16:56;9.38;;;4.07;;
27632;SDS011;15046;50.930;13.334;2024-01-07T12:19:22;7.50;;;3.40;;
27632;SDS011;15046;50.930;13.334;2024-01-07T12:21:49;7.57;;;3.40;;
27632;SDS011;15046;50.930;13.334;2024-01-07T12:24:25;5.90;;;3.10;;
27632;SDS011;15046;50.930;13.334;2024-01-07T12:26:51;6.20;;;3.20;;
27632;SDS011;15046;50.930;13.334;2024-01-07T12:29:17;5.93;;;2.97;;
27632;SDS011;15046;50.930;13.334;2024-01-07T12:31:43;9.18;;;3.70;;
27632;SDS011;15046;50.930;13.334;2024-01-07T12:34:11;6.30;;;2.80;;
27632;SDS011;15046;50.930;13.334;2024-01-07T12:36:38;5.85;;;3.28;;
27632;SDS011;15046;50.930;13.334;2024-01-07T12:39:05;5.55;;;3.22;;
27632;SDS011;15046;50.930;13.334;2024-01-07T12:41:31;6.03;;;3.10;;
27632;SDS011;15046;50.930;13.334;2024-01-07T12:43:57;6.63;;;3.35;;
27632;SDS011;15046;50.930;13.334;2024-01-07T12:46:23;6.22;;;3.70;;
27632;SDS011;15046;50.930;13.334;2024-01-07T12:48:49;7.75;;;3.28;;
27632;SDS011;15046;50.930;13.334;2024-01-07T12:51:14;7.00;;;3.88;;
27632;SDS011;15046;50.930;13.334;2024-01-07T12:53:41;7.57;;;3.60;;
27632;SDS011;15046;50.930;13.334;2024-01-07T12:56:06;6.65;;;3.13;;
27632;SDS011;15046;50.930;13.334;2024-01-07T12:58:32;5.68;;;3.08;;
27632;SDS011;15046;50.930;13.334;2024-01-07T13:00:58;6.97;;;3.20;;
27632;SDS011;15046;50.930;13.334;2024-01-07T13:03:25;6.47;;;3.67;;
27632;SDS011;15046;50.930;13.334;2024-01-07T13:05:51;7.93;;;4.05;;
27632;SDS011;15046;50.930;13.334;2024-01-07T13:08:17;6.13;;;3.05;;
27632;SDS011;15046;50.930;13.334;2024-01-07T13:10:44;7.13;;;3.58;;
27632;SDS011;15046;50.930;13.334;2024-01-07T13:13:11;8.25;;;4.22;;
27632;SDS011;15046;50.930;13.334;2024-01-07T13:15:37;6.07;;;3.45;;
27632;SDS011;15046;50.930;13.334;2024-01-07T13:18:04;6.72;;;3.85;;
27632;SDS011;15046;50.930;13.334;2024-01-07T13:20:29;7.32;;;3.58;;
27632;SDS011;15046;50.930;13.334;2024-01-07T13:22:55;6.03;;;3.15;;
27632;SDS011;15046;50.930;13.334;2024-01-07T13:25:21;7.13;;;3.05;;
27632;SDS011;15046;50.930;13.334;2024-01-07T13:27:47;6.43;;;3.50;;
27632;SDS011;15046;50.930;13.334;2024-01-07T13:30:13;5.55;;;3.28;;
27632;SDS011;15046;50.930;13.334;2024-01-07T13:32:39;6.47;;;3.75;;
27632;SDS011;15046;50.930;13.334;2024-01-07T13:35:05;9.20;;;4.15;;
27632;SDS011;15046;50.930;13.334;2024-01-07T13:37:35;5.28;;;2.92;;
27632;SDS011;15046;50.930;13.334;2024-01-07T13:40:07;7.20;;;3.50;;
27632;SDS011;15046;50.930;13.334;2024-01-07T13:42:36;6.60;;;3.33;;
27632;SDS011;15046;50.930;13.334;2024-01-07T13:45:02;4.88;;;3.03;;
27632;SDS011;15046;50.930;13.334;2024-01-07T13:47:29;8.23;;;3.90;;
27632;SDS011;15046;50.930;13.334;2024-01-07T13:49:55;5.85;;;3.13;;
27632;SDS011;15046;50.930;13.334;2024-01-07T13:52:21;6.15;;;3.53;;
27632;SDS011;15046;50.930;13.334;2024-01-07T13:54:46;6.15;;;3.22;;
27632;SDS011;15046;50.930;13.334;2024-01-07T13:57:12;7.05;;;3.40;;
27632;SDS011;15046;50.930;13.334;2024-01-07T13:59:38;5.15;;;2.78;;
27632;SDS011;15046;50.930;13.334;2024-01-07T14:02:05;6.82;;;3.38;;
27632;SDS011;15046;50.930;13.334;2024-01-07T14:04:32;5.47;;;2.72;;
27632;SDS011;15046;50.930;13.334;2024-01-07T14:06:58;7.07;;;3.08;;
27632;SDS011;15046;50.930;13.334;2024-01-07T14:09:24;6.00;;;3.10;;
27632;SDS011;15046;50.930;13.334;2024-01-07T14:11:50;4.97;;;2.67;;
27632;SDS011;15046;50.930;13.334;2024-01-07T14:14:20;5.15;;;3.00;;
27632;SDS011;15046;50.930;13.334;2024-01-07T14:16:45;5.18;;;2.53;;
27632;SDS011;15046;50.930;13.334;2024-01-07T14:19:11;6.15;;;3.15;;
27632;SDS011;15046;50.930;13.334;2024-01-07T14:21:39;5.82;;;2.72;;
27632;SDS011;15046;50.930;13.334;2024-01-07T14:24:05;5.43;;;2.78;;
27632;SDS011;15046;50.930;13.334;2024-01-07T14:26:32;4.60;;;2.47;;